createdAt,value
2024-02-17T00:00:37.031Z,1018.49
2024-02-17T00:01:36.990Z,1018.53
2024-02-17T00:02:36.982Z,1018.50
2024-02-17T00:03:37.000Z,1018.56
2024-02-17T00:04:37.032Z,1018.59
2024-02-17T00:05:36.968Z,1018.60
2024-02-17T00:06:37.029Z,1018.65
2024-02-17T00:07:36.921Z,1018.59
2024-02-17T00:08:36.890Z,1018.65
2024-02-17T00:09:36.923Z,1018.66
2024-02-17T00:10:36.876Z,1018.64
2024-02-17T00:11:36.916Z,1018.67
2024-02-17T00:12:36.919Z,1018.66
2024-02-17T00:13:36.855Z,1018.71
2024-02-17T00:14:36.832Z,1018.70
2024-02-17T00:15:36.841Z,1018.77
2024-02-17T00:16:36.829Z,1018.74
2024-02-17T00:17:36.869Z,1018.75
2024-02-17T00:18:36.988Z,1018.76
2024-02-17T00:19:37.021Z,1018.78
2024-02-17T00:20:36.888Z,1018.79
2024-02-17T00:21:36.808Z,1018.81
2024-02-17T00:22:36.779Z,1018.82
2024-02-17T00:23:36.741Z,1018.85
2024-02-17T00:24:36.994Z,1018.87
2024-02-17T00:25:36.718Z,1018.86
2024-02-17T00:26:36.708Z,1018.91
2024-02-17T00:27:36.732Z,1018.94
2024-02-17T00:28:36.681Z,1018.96
2024-02-17T00:29:36.668Z,1018.98
2024-02-17T00:30:36.812Z,1018.97
2024-02-17T00:31:36.649Z,1018.96
2024-02-17T00:32:36.642Z,1018.96
2024-02-17T00:33:37.014Z,1019.00
2024-02-17T00:34:36.680Z,1019.05
2024-02-17T00:35:36.615Z,1019.02
2024-02-17T00:36:36.633Z,1019.05
2024-02-17T00:37:36.618Z,1019.08
2024-02-17T00:38:36.559Z,1019.07
2024-02-17T00:39:36.605Z,1019.07
2024-02-17T00:40:36.543Z,1019.07
2024-02-17T00:41:36.539Z,1019.06
2024-02-17T00:42:36.546Z,1019.05
2024-02-17T00:43:36.525Z,1019.06
2024-02-17T00:44:36.526Z,1019.05
2024-02-17T00:45:36.629Z,1019.06
2024-02-17T00:46:36.474Z,1019.09
2024-02-17T00:47:36.498Z,1019.10
2024-02-17T00:48:36.619Z,1019.14
2024-02-17T00:49:36.546Z,1019.12
2024-02-17T00:50:36.424Z,1019.15
2024-02-17T00:51:36.489Z,1019.18
2024-02-17T00:52:36.414Z,1019.17
2024-02-17T00:53:36.414Z,1019.19
2024-02-17T00:54:36.454Z,1019.18
2024-02-17T00:55:36.383Z,1019.18
2024-02-17T00:56:36.371Z,1019.22
2024-02-17T00:57:36.420Z,1019.22
2024-02-17T00:58:36.524Z,1019.26
2024-02-17T00:59:36.650Z,1019.27
2024-02-17T01:00:36.446Z,1019.26
2024-02-17T01:01:39.712Z,1019.26
2024-02-17T01:02:36.317Z,1019.26
2024-02-17T01:03:36.377Z,1019.26
2024-02-17T01:04:36.326Z,1019.24
2024-02-17T01:05:36.272Z,1019.28
2024-02-17T01:06:36.541Z,1019.35
2024-02-17T01:07:36.266Z,1019.31
2024-02-17T01:08:36.231Z,1019.31
2024-02-17T01:09:36.279Z,1019.33
2024-02-17T01:10:37.359Z,1019.36
2024-02-17T01:11:36.264Z,1019.34
2024-02-17T01:12:36.337Z,1019.34
2024-02-17T01:13:36.188Z,1019.38
2024-02-17T01:14:36.168Z,1019.37
2024-02-17T01:15:36.211Z,1019.37
2024-02-17T01:16:36.159Z,1019.38
2024-02-17T01:17:36.153Z,1019.38
2024-02-17T01:18:36.217Z,1019.40
2024-02-17T01:19:36.182Z,1019.40
2024-02-17T01:20:36.115Z,1019.40
2024-02-17T01:21:36.188Z,1019.46
2024-02-17T01:22:36.082Z,1019.46
2024-02-17T01:23:36.076Z,1019.47
2024-02-17T01:24:36.098Z,1019.49
2024-02-17T01:25:36.044Z,1019.49
2024-02-17T01:26:36.049Z,1019.55
2024-02-17T01:27:36.095Z,1019.53
2024-02-17T01:28:36.014Z,1019.55
2024-02-17T01:29:36.010Z,1019.53
2024-02-17T01:30:36.014Z,1019.57
2024-02-17T01:31:36.007Z,1019.55
2024-02-17T01:32:35.979Z,1019.57
2024-02-17T01:33:36.043Z,1019.57
2024-02-17T01:34:35.986Z,1019.56
2024-02-17T01:35:35.964Z,1019.56
2024-02-17T01:36:35.993Z,1019.58
2024-02-17T01:37:35.914Z,1019.58
2024-02-17T01:38:35.907Z,1019.59
2024-02-17T01:39:35.903Z,1019.58
2024-02-17T01:40:35.889Z,1019.56
2024-02-17T01:41:35.863Z,1019.61
2024-02-17T01:42:35.888Z,1019.58
2024-02-17T01:43:35.877Z,1019.57
2024-02-17T01:44:35.841Z,1019.56
2024-02-17T01:45:35.929Z,1019.60
2024-02-17T01:46:35.821Z,1019.57
2024-02-17T01:47:35.862Z,1019.61
2024-02-17T01:48:35.894Z,1019.57
2024-02-17T01:49:35.861Z,1019.58
2024-02-17T01:50:35.772Z,1019.59
2024-02-17T01:51:35.817Z,1019.63
2024-02-17T01:52:39.277Z,1019.57
2024-02-17T01:53:35.757Z,1019.58
2024-02-17T01:54:35.797Z,1019.61
2024-02-17T01:55:35.720Z,1019.60
2024-02-17T01:56:35.746Z,1019.65
2024-02-17T01:57:35.751Z,1019.65
2024-02-17T01:58:35.746Z,1019.66
2024-02-17T01:59:35.679Z,1019.63
2024-02-17T02:00:35.942Z,1019.65
2024-02-17T02:01:35.677Z,1019.64
2024-02-17T02:02:35.632Z,1019.65
2024-02-17T02:03:35.765Z,1019.67
2024-02-17T02:04:35.765Z,1019.67
2024-02-17T02:05:35.654Z,1019.69
2024-02-17T02:06:35.637Z,1019.70
2024-02-17T02:07:35.582Z,1019.72
2024-02-17T02:08:35.577Z,1019.73
2024-02-17T02:09:35.625Z,1019.73
2024-02-17T02:10:35.545Z,1019.72
2024-02-17T02:11:35.571Z,1019.70
2024-02-17T02:12:35.602Z,1019.72
2024-02-17T02:13:35.655Z,1019.73
2024-02-17T02:14:35.583Z,1019.74
2024-02-17T02:15:41.264Z,1019.74
2024-02-17T02:16:36.522Z,1019.73
2024-02-17T02:17:35.532Z,1019.71
2024-02-17T02:18:35.695Z,1019.75
2024-02-17T02:19:35.537Z,1019.77
2024-02-17T02:20:35.431Z,1019.75
2024-02-17T02:21:35.474Z,1019.74
2024-02-17T02:22:35.418Z,1019.76
2024-02-17T02:23:35.411Z,1019.75
2024-02-17T02:24:35.443Z,1019.73
2024-02-17T02:25:35.385Z,1019.73
2024-02-17T02:26:35.377Z,1019.76
2024-02-17T02:27:35.385Z,1019.76
2024-02-17T02:28:35.371Z,1019.75
2024-02-17T02:29:35.516Z,1019.84
2024-02-17T02:30:35.383Z,1019.83
2024-02-17T02:31:35.334Z,1019.91
2024-02-17T02:32:35.351Z,1019.84
2024-02-17T02:33:35.421Z,1019.86
2024-02-17T02:34:35.354Z,1019.87
2024-02-17T02:35:35.267Z,1019.88
2024-02-17T02:36:35.318Z,1019.90
2024-02-17T02:37:35.259Z,1019.91
2024-02-17T02:38:35.347Z,1019.93
2024-02-17T02:39:35.332Z,1019.94
2024-02-17T02:40:35.322Z,1019.93
2024-02-17T02:41:35.220Z,1019.93
2024-02-17T02:42:35.220Z,1019.94
2024-02-17T02:43:35.207Z,1019.95
2024-02-17T02:44:35.166Z,1019.94
2024-02-17T02:45:35.341Z,1019.99
2024-02-17T02:46:35.167Z,1019.96
2024-02-17T02:47:35.180Z,1019.96
2024-02-17T02:48:35.218Z,1019.98
2024-02-17T02:49:35.183Z,1019.94
2024-02-17T02:50:35.121Z,1020.00
2024-02-17T02:51:35.144Z,1019.94
2024-02-17T02:52:35.085Z,1019.98
2024-02-17T02:53:35.083Z,1019.99
2024-02-17T02:54:35.129Z,1020.00
2024-02-17T02:55:35.063Z,1020.03
2024-02-17T02:56:35.045Z,1020.07
2024-02-17T02:57:35.061Z,1020.06
2024-02-17T02:58:35.037Z,1020.10
2024-02-17T02:59:35.076Z,1020.12
2024-02-17T03:00:35.070Z,1020.15
2024-02-17T03:01:35.034Z,1020.14
2024-02-17T03:02:34.995Z,1020.16
2024-02-17T03:03:35.032Z,1020.14
2024-02-17T03:04:35.162Z,1020.19
2024-02-17T03:05:34.958Z,1020.21
2024-02-17T03:06:35.002Z,1020.19
2024-02-17T03:07:34.952Z,1020.22
2024-02-17T03:08:34.916Z,1020.20
2024-02-17T03:09:34.932Z,1020.22
2024-02-17T03:10:34.888Z,1020.22
2024-02-17T03:11:34.945Z,1020.21
2024-02-17T03:12:34.976Z,1020.22
2024-02-17T03:13:34.886Z,1020.24
2024-02-17T03:14:34.838Z,1020.28
2024-02-17T03:15:34.891Z,1020.28
2024-02-17T03:16:34.824Z,1020.27
2024-02-17T03:17:34.869Z,1020.29
2024-02-17T03:18:34.908Z,1020.29
2024-02-17T03:19:34.941Z,1020.29
2024-02-17T03:20:34.787Z,1020.30
2024-02-17T03:21:37.598Z,1020.29
2024-02-17T03:22:34.937Z,1020.25
2024-02-17T03:23:34.766Z,1020.27
2024-02-17T03:24:34.862Z,1020.31
2024-02-17T03:25:34.719Z,1020.34
2024-02-17T03:26:34.705Z,1020.40
2024-02-17T03:27:34.743Z,1020.42
2024-02-17T03:28:34.709Z,1020.42
2024-02-17T03:29:36.171Z,1020.44
2024-02-17T03:30:34.671Z,1020.47
2024-02-17T03:31:34.666Z,1020.48
2024-02-17T03:32:34.674Z,1020.45
2024-02-17T03:33:34.893Z,1020.48
2024-02-17T03:34:34.665Z,1020.50
2024-02-17T03:35:34.650Z,1020.48
2024-02-17T03:36:34.739Z,1020.48
2024-02-17T03:37:34.617Z,1020.49
2024-02-17T03:38:34.580Z,1020.52
2024-02-17T03:39:34.705Z,1020.55
2024-02-17T03:40:34.570Z,1020.57
2024-02-17T03:41:34.560Z,1020.58
2024-02-17T03:42:34.600Z,1020.59
2024-02-17T03:43:34.523Z,1020.56
2024-02-17T03:44:34.504Z,1020.59
2024-02-17T03:45:34.553Z,1020.62
2024-02-17T03:46:34.529Z,1020.62
2024-02-17T03:47:34.542Z,1020.65
2024-02-17T03:48:34.631Z,1020.63
2024-02-17T03:49:34.698Z,1020.69
2024-02-17T03:50:34.471Z,1020.74
2024-02-17T03:51:34.528Z,1020.75
2024-02-17T03:52:34.470Z,1020.73
2024-02-17T03:53:34.568Z,1020.76
2024-02-17T03:54:34.561Z,1020.79
2024-02-17T03:55:34.551Z,1020.78
2024-02-17T03:56:34.453Z,1020.80
2024-02-17T03:57:34.445Z,1020.85
2024-02-17T03:58:34.365Z,1020.86
2024-02-17T03:59:34.345Z,1020.90
2024-02-17T04:00:34.371Z,1020.92
2024-02-17T04:01:34.384Z,1020.96
2024-02-17T04:02:34.406Z,1020.97
2024-02-17T04:03:34.347Z,1021.01
2024-02-17T04:04:34.404Z,1021.03
2024-02-17T04:05:34.319Z,1021.05
2024-02-17T04:06:34.441Z,1021.05
2024-02-17T04:07:34.423Z,1021.04
2024-02-17T04:08:34.269Z,1021.08
2024-02-17T04:09:34.243Z,1021.07
2024-02-17T04:10:34.266Z,1021.12
2024-02-17T04:11:34.286Z,1021.10
2024-02-17T04:12:34.257Z,1021.16
2024-02-17T04:13:34.202Z,1021.14
2024-02-17T04:14:34.193Z,1021.13
2024-02-17T04:15:34.193Z,1021.15
2024-02-17T04:16:34.155Z,1021.15
2024-02-17T04:17:34.165Z,1021.18
2024-02-17T04:18:34.303Z,1021.20
2024-02-17T04:19:34.307Z,1021.18
2024-02-17T04:20:34.136Z,1021.19
2024-02-17T04:21:34.132Z,1021.26
2024-02-17T04:22:34.160Z,1021.23
2024-02-17T04:23:34.246Z,1021.25
2024-02-17T04:24:34.110Z,1021.30
2024-02-17T04:25:34.058Z,1021.30
2024-02-17T04:26:34.049Z,1021.34
2024-02-17T04:27:34.063Z,1021.30
2024-02-17T04:28:34.033Z,1021.32
2024-02-17T04:29:34.008Z,1021.34
2024-02-17T04:30:34.030Z,1021.35
2024-02-17T04:31:33.985Z,1021.35
2024-02-17T04:32:34.060Z,1021.35
2024-02-17T04:33:34.255Z,1021.33
2024-02-17T04:34:34.102Z,1021.40
2024-02-17T04:35:34.078Z,1021.42
2024-02-17T04:36:33.969Z,1021.41
2024-02-17T04:37:33.963Z,1021.47
2024-02-17T04:38:33.953Z,1021.49
2024-02-17T04:39:33.934Z,1021.46
2024-02-17T04:40:33.895Z,1021.50
2024-02-17T04:41:33.883Z,1021.55
2024-02-17T04:42:34.004Z,1021.51
2024-02-17T04:43:33.873Z,1021.57
2024-02-17T04:44:33.865Z,1021.57
2024-02-17T04:45:33.852Z,1021.57
2024-02-17T04:46:33.844Z,1021.59
2024-02-17T04:47:33.857Z,1021.61
2024-02-17T04:48:33.865Z,1021.58
2024-02-17T04:49:33.849Z,1021.60
2024-02-17T04:50:33.834Z,1021.62
2024-02-17T04:51:35.794Z,1021.63
2024-02-17T04:52:33.777Z,1021.65
2024-02-17T04:53:33.759Z,1021.67
2024-02-17T04:54:33.866Z,1021.67
2024-02-17T04:55:33.735Z,1021.67
2024-02-17T04:56:33.729Z,1021.69
2024-02-17T04:57:33.929Z,1021.73
2024-02-17T04:58:33.716Z,1021.74
2024-02-17T04:59:33.810Z,1021.73
2024-02-17T05:00:33.780Z,1021.78
2024-02-17T05:01:33.742Z,1021.75
2024-02-17T05:02:33.652Z,1021.77
2024-02-17T05:03:33.882Z,1021.77
2024-02-17T05:04:33.737Z,1021.81
2024-02-17T05:05:33.651Z,1021.79
2024-02-17T05:06:33.793Z,1021.83
2024-02-17T05:07:33.626Z,1021.82
2024-02-17T05:08:33.582Z,1021.84
2024-02-17T05:09:33.634Z,1021.83
2024-02-17T05:10:33.577Z,1021.86
2024-02-17T05:11:33.898Z,1021.89
2024-02-17T05:12:33.748Z,1021.88
2024-02-17T05:13:33.661Z,1021.91
2024-02-17T05:14:33.527Z,1021.89
2024-02-17T05:15:33.566Z,1021.92
2024-02-17T05:16:33.563Z,1021.93
2024-02-17T05:17:33.595Z,1021.90
2024-02-17T05:18:33.659Z,1021.94
2024-02-17T05:19:33.675Z,1021.96
2024-02-17T05:20:33.466Z,1021.96
2024-02-17T05:21:33.484Z,1021.93
2024-02-17T05:22:33.492Z,1021.95
2024-02-17T05:23:33.439Z,1021.99
2024-02-17T05:24:33.479Z,1021.97
2024-02-17T05:25:33.464Z,1021.94
2024-02-17T05:26:33.461Z,1021.98
2024-02-17T05:27:33.471Z,1021.99
2024-02-17T05:28:33.411Z,1021.99
2024-02-17T05:29:33.600Z,1022.00
2024-02-17T05:30:33.430Z,1021.97
2024-02-17T05:31:33.344Z,1022.00
2024-02-17T05:32:33.374Z,1022.02
2024-02-17T05:33:33.603Z,1022.03
2024-02-17T05:34:33.669Z,1022.03
2024-02-17T05:35:33.878Z,1022.06
2024-02-17T05:36:33.371Z,1022.07
2024-02-17T05:37:33.469Z,1022.10
2024-02-17T05:38:33.397Z,1022.13
2024-02-17T05:39:33.386Z,1022.13
2024-02-17T05:40:33.254Z,1022.17
2024-02-17T05:41:33.226Z,1022.19
2024-02-17T05:42:33.260Z,1022.18
2024-02-17T05:43:33.294Z,1022.21
2024-02-17T05:44:33.209Z,1022.18
2024-02-17T05:45:33.325Z,1022.23
2024-02-17T05:46:33.188Z,1022.24
2024-02-17T05:47:33.253Z,1022.23
2024-02-17T05:48:33.426Z,1022.25
2024-02-17T05:49:33.224Z,1022.30
2024-02-17T05:50:33.146Z,1022.30
2024-02-17T05:51:33.264Z,1022.33
2024-02-17T05:52:33.144Z,1022.34
2024-02-17T05:53:33.111Z,1022.36
2024-02-17T05:54:33.169Z,1022.37
2024-02-17T05:55:33.090Z,1022.38
2024-02-17T05:56:33.116Z,1022.39
2024-02-17T05:57:33.164Z,1022.39
2024-02-17T05:58:33.074Z,1022.38
2024-02-17T05:59:33.035Z,1022.37
2024-02-17T06:00:33.215Z,1022.45
2024-02-17T06:01:33.169Z,1022.42
2024-02-17T06:02:33.055Z,1022.43
2024-02-17T06:03:33.118Z,1022.44
2024-02-17T06:04:33.039Z,1022.38
2024-02-17T06:05:33.056Z,1022.42
2024-02-17T06:06:33.125Z,1022.41
2024-02-17T06:07:33.061Z,1022.39
2024-02-17T06:08:34.867Z,1022.40
2024-02-17T06:09:32.982Z,1022.44
2024-02-17T06:10:32.972Z,1022.47
2024-02-17T06:11:33.213Z,1022.48
2024-02-17T06:12:33.056Z,1022.46
2024-02-17T06:13:32.903Z,1022.54
2024-02-17T06:14:32.890Z,1022.56
2024-02-17T06:15:33.013Z,1022.49
2024-02-17T06:16:32.878Z,1022.55
2024-02-17T06:17:32.866Z,1022.57
2024-02-17T06:18:32.995Z,1022.55
2024-02-17T06:19:35.866Z,1022.55
2024-02-17T06:20:32.832Z,1022.60
2024-02-17T06:21:32.847Z,1022.60
2024-02-17T06:22:32.827Z,1022.61
2024-02-17T06:23:32.785Z,1022.63
2024-02-17T06:24:32.887Z,1022.63
2024-02-17T06:25:32.794Z,1022.65
2024-02-17T06:26:32.751Z,1022.73
2024-02-17T06:27:32.784Z,1022.74
2024-02-17T06:28:32.738Z,1022.76
2024-02-17T06:29:32.751Z,1022.75
2024-02-17T06:30:32.786Z,1022.74
2024-02-17T06:31:34.859Z,1022.75
2024-02-17T06:32:32.714Z,1022.76
2024-02-17T06:33:33.066Z,1022.76
2024-02-17T06:34:32.923Z,1022.76
2024-02-17T06:35:32.676Z,1022.81
2024-02-17T06:36:32.772Z,1022.76
2024-02-17T06:37:32.663Z,1022.80
2024-02-17T06:38:32.623Z,1022.82
2024-02-17T06:39:32.684Z,1022.83
2024-02-17T06:40:32.811Z,1022.88
2024-02-17T06:41:32.591Z,1022.91
2024-02-17T06:42:32.621Z,1022.90
2024-02-17T06:43:32.635Z,1022.85
2024-02-17T06:44:32.586Z,1022.89
2024-02-17T06:45:32.584Z,1022.92
2024-02-17T06:46:32.553Z,1022.92
2024-02-17T06:47:32.545Z,1022.95
2024-02-17T06:48:32.570Z,1022.96
2024-02-17T06:49:32.602Z,1023.00
2024-02-17T06:50:32.499Z,1023.00
2024-02-17T06:51:32.504Z,1023.04
2024-02-17T06:52:32.484Z,1023.03
2024-02-17T06:53:32.493Z,1023.02
2024-02-17T06:54:32.576Z,1023.07
2024-02-17T06:55:32.670Z,1023.03
2024-02-17T06:56:32.426Z,1023.05
2024-02-17T06:57:32.431Z,1023.07
2024-02-17T06:58:32.416Z,1023.08
2024-02-17T06:59:32.408Z,1023.10
2024-02-17T07:00:32.398Z,1023.11
2024-02-17T07:01:32.405Z,1023.12
2024-02-17T07:02:32.426Z,1023.13
2024-02-17T07:03:32.481Z,1023.15
2024-02-17T07:04:32.423Z,1023.16
2024-02-17T07:05:32.382Z,1023.17
2024-02-17T07:06:32.543Z,1023.21
2024-02-17T07:07:32.498Z,1023.20
2024-02-17T07:08:32.296Z,1023.22
2024-02-17T07:09:32.344Z,1023.24
2024-02-17T07:10:32.288Z,1023.26
2024-02-17T07:11:32.345Z,1023.30
2024-02-17T07:12:32.331Z,1023.28
2024-02-17T07:13:32.272Z,1023.29
2024-02-17T07:14:32.235Z,1023.32
2024-02-17T07:15:32.243Z,1023.34
2024-02-17T07:16:32.226Z,1023.40
2024-02-17T07:17:32.328Z,1023.40
2024-02-17T07:18:32.327Z,1023.40
2024-02-17T07:19:32.233Z,1023.44
2024-02-17T07:20:32.269Z,1023.46
2024-02-17T07:21:32.404Z,1023.51
2024-02-17T07:22:32.208Z,1023.49
2024-02-17T07:23:32.225Z,1023.53
2024-02-17T07:24:32.200Z,1023.51
2024-02-17T07:25:32.126Z,1023.56
2024-02-17T07:26:32.111Z,1023.57
2024-02-17T07:27:32.738Z,1023.57
2024-02-17T07:28:33.675Z,1023.61
2024-02-17T07:29:32.070Z,1023.62
2024-02-17T07:30:32.227Z,1023.66
2024-02-17T07:31:32.052Z,1023.66
2024-02-17T07:32:32.084Z,1023.67
2024-02-17T07:33:32.213Z,1023.74
2024-02-17T07:34:32.127Z,1023.74
2024-02-17T07:35:32.019Z,1023.77
2024-02-17T07:36:32.042Z,1023.82
2024-02-17T07:37:32.022Z,1023.80
2024-02-17T07:38:31.981Z,1023.80
2024-02-17T07:39:32.005Z,1023.83
2024-02-17T07:40:31.971Z,1023.86
2024-02-17T07:41:31.989Z,1023.84
2024-02-17T07:42:31.950Z,1023.86
2024-02-17T07:43:31.919Z,1023.86
2024-02-17T07:44:31.920Z,1023.88
2024-02-17T07:45:31.960Z,1023.87
2024-02-17T07:46:31.898Z,1023.90
2024-02-17T07:47:31.908Z,1023.92
2024-02-17T07:48:32.092Z,1023.95
2024-02-17T07:49:31.978Z,1023.95
2024-02-17T07:50:31.884Z,1023.96
2024-02-17T07:51:31.923Z,1023.99
2024-02-17T07:52:31.818Z,1023.97
2024-02-17T07:53:31.821Z,1024.02
2024-02-17T07:54:31.826Z,1024.02
2024-02-17T07:55:31.790Z,1024.04
2024-02-17T07:56:31.831Z,1024.00
2024-02-17T07:57:31.800Z,1024.00
2024-02-17T07:58:31.767Z,1024.06
2024-02-17T07:59:31.746Z,1024.09
2024-02-17T08:00:31.918Z,1024.11
2024-02-17T08:01:31.759Z,1024.11
2024-02-17T08:02:31.710Z,1024.15
2024-02-17T08:03:31.798Z,1024.18
2024-02-17T08:04:31.732Z,1024.16
2024-02-17T08:05:31.755Z,1024.18
2024-02-17T08:06:31.844Z,1024.20
2024-02-17T08:07:31.715Z,1024.26
2024-02-17T08:08:31.651Z,1024.25
2024-02-17T08:09:31.675Z,1024.30
2024-02-17T08:10:31.620Z,1024.31
2024-02-17T08:11:31.675Z,1024.33
2024-02-17T08:12:31.681Z,1024.37
2024-02-17T08:13:31.617Z,1024.38
2024-02-17T08:14:31.572Z,1024.39
2024-02-17T08:15:31.598Z,1024.37
2024-02-17T08:16:31.564Z,1024.39
2024-02-17T08:17:31.572Z,1024.40
2024-02-17T08:18:31.792Z,1024.46
2024-02-17T08:19:31.621Z,1024.46
2024-02-17T08:20:31.614Z,1024.44
2024-02-17T08:21:31.588Z,1024.50
2024-02-17T08:22:31.485Z,1024.42
2024-02-17T08:23:31.471Z,1024.48
2024-02-17T08:24:31.597Z,1024.42
2024-02-17T08:25:31.494Z,1024.50
2024-02-17T08:26:31.476Z,1024.51
2024-02-17T08:27:31.569Z,1024.52
2024-02-17T08:28:31.438Z,1024.54
2024-02-17T08:29:31.399Z,1024.54
2024-02-17T08:30:31.495Z,1024.57
2024-02-17T08:31:31.389Z,1024.59
2024-02-17T08:32:31.450Z,1024.62
2024-02-17T08:33:31.506Z,1024.63
2024-02-17T08:34:31.569Z,1024.59
2024-02-17T08:35:31.566Z,1024.56
2024-02-17T08:36:31.368Z,1024.58
2024-02-17T08:37:31.330Z,1024.58
2024-02-17T08:38:31.305Z,1024.58
2024-02-17T08:39:31.372Z,1024.59
2024-02-17T08:40:31.302Z,1024.61
2024-02-17T08:41:31.278Z,1024.63
2024-02-17T08:42:31.287Z,1024.65
2024-02-17T08:43:31.252Z,1024.64
2024-02-17T08:44:31.261Z,1024.63
2024-02-17T08:45:31.452Z,1024.68
2024-02-17T08:46:31.237Z,1024.71
2024-02-17T08:47:31.250Z,1024.73
2024-02-17T08:48:31.372Z,1024.70
2024-02-17T08:49:31.371Z,1024.73
2024-02-17T08:50:31.219Z,1024.70
2024-02-17T08:51:31.344Z,1024.73
2024-02-17T08:52:31.158Z,1024.75
2024-02-17T08:53:31.162Z,1024.75
2024-02-17T08:54:31.179Z,1024.79
2024-02-17T08:55:31.313Z,1024.83
2024-02-17T08:56:31.137Z,1024.82
2024-02-17T08:57:31.124Z,1024.87
2024-02-17T08:58:32.015Z,1024.83
2024-02-17T08:59:31.091Z,1024.90
2024-02-17T09:00:31.136Z,1024.88
2024-02-17T09:01:31.214Z,1024.88
2024-02-17T09:02:31.250Z,1024.87
2024-02-17T09:03:31.074Z,1024.90
2024-02-17T09:04:31.082Z,1024.89
2024-02-17T09:05:31.040Z,1024.92
2024-02-17T09:06:31.172Z,1024.91
2024-02-17T09:07:31.107Z,1024.88
2024-02-17T09:08:30.997Z,1024.90
2024-02-17T09:09:31.084Z,1024.90
2024-02-17T09:10:30.963Z,1024.93
2024-02-17T09:11:31.010Z,1024.94
2024-02-17T09:12:30.955Z,1024.95
2024-02-17T09:13:30.956Z,1024.97
2024-02-17T09:14:30.920Z,1024.96
2024-02-17T09:15:31.059Z,1024.99
2024-02-17T09:16:30.922Z,1024.99
2024-02-17T09:17:30.936Z,1025.00
2024-02-17T09:18:31.025Z,1024.96
2024-02-17T09:19:30.941Z,1025.00
2024-02-17T09:20:30.894Z,1024.99
2024-02-17T09:21:30.965Z,1025.05
2024-02-17T09:22:30.861Z,1025.08
2024-02-17T09:23:30.819Z,1025.10
2024-02-17T09:24:30.827Z,1025.10
2024-02-17T09:25:30.813Z,1025.11
2024-02-17T09:26:30.786Z,1025.12
2024-02-17T09:27:30.837Z,1025.16
2024-02-17T09:28:30.773Z,1025.15
2024-02-17T09:29:30.787Z,1025.19
2024-02-17T09:30:30.772Z,1025.20
2024-02-17T09:31:32.846Z,1025.24
2024-02-17T09:32:30.748Z,1025.20
2024-02-17T09:33:30.852Z,1025.24
2024-02-17T09:34:30.803Z,1025.25
2024-02-17T09:35:30.692Z,1025.25
2024-02-17T09:36:30.722Z,1025.32
2024-02-17T09:37:30.686Z,1025.34
2024-02-17T09:38:30.674Z,1025.35
2024-02-17T09:39:30.780Z,1025.35
2024-02-17T09:40:30.638Z,1025.35
2024-02-17T09:41:30.654Z,1025.37
2024-02-17T09:42:30.661Z,1025.41
2024-02-17T09:43:30.612Z,1025.42
2024-02-17T09:44:30.598Z,1025.43
2024-02-17T09:45:30.693Z,1025.47
2024-02-17T09:46:30.584Z,1025.50
2024-02-17T09:47:30.563Z,1025.54
2024-02-17T09:48:30.738Z,1025.58
2024-02-17T09:49:30.628Z,1025.64
2024-02-17T09:50:30.561Z,1025.64
2024-02-17T09:51:30.617Z,1025.65
2024-02-17T09:52:30.512Z,1025.68
2024-02-17T09:53:30.494Z,1025.69
2024-02-17T09:54:30.521Z,1025.73
2024-02-17T09:55:30.491Z,1025.68
2024-02-17T09:56:30.524Z,1025.72
2024-02-17T09:57:38.101Z,1025.75
2024-02-17T09:58:31.511Z,1025.72
2024-02-17T09:59:30.447Z,1025.73
2024-02-17T10:00:30.455Z,1025.75
2024-02-17T10:01:30.478Z,1025.75
2024-02-17T10:02:30.817Z,1025.81
2024-02-17T10:03:30.452Z,1025.84
2024-02-17T10:04:30.501Z,1025.81
2024-02-17T10:05:30.566Z,1025.87
2024-02-17T10:06:30.475Z,1025.87
2024-02-17T10:07:30.356Z,1025.85
2024-02-17T10:08:30.330Z,1025.83
2024-02-17T10:09:31.554Z,1025.83
2024-02-17T10:10:30.339Z,1025.80
2024-02-17T10:11:30.325Z,1025.88
2024-02-17T10:12:30.318Z,1025.88
2024-02-17T10:13:30.660Z,1025.90
2024-02-17T10:14:30.386Z,1025.92
2024-02-17T10:15:30.423Z,1025.95
2024-02-17T10:16:30.281Z,1025.96
2024-02-17T10:17:30.281Z,1025.98
2024-02-17T10:18:30.404Z,1026.00
2024-02-17T10:19:30.419Z,1026.00
2024-02-17T10:20:30.213Z,1025.99
2024-02-17T10:21:30.214Z,1026.01
2024-02-17T10:22:30.175Z,1026.01
2024-02-17T10:23:30.205Z,1026.01
2024-02-17T10:24:30.193Z,1026.07
2024-02-17T10:25:30.382Z,1026.08
2024-02-17T10:26:30.148Z,1026.06
2024-02-17T10:27:30.180Z,1026.08
2024-02-17T10:28:30.121Z,1026.11
2024-02-17T10:29:30.126Z,1026.11
2024-02-17T10:30:30.165Z,1026.10
2024-02-17T10:31:30.093Z,1026.11
2024-02-17T10:32:30.119Z,1026.12
2024-02-17T10:33:30.317Z,1026.09
2024-02-17T10:34:30.338Z,1026.11
2024-02-17T10:35:30.042Z,1026.11
2024-02-17T10:36:30.081Z,1026.13
2024-02-17T10:37:30.035Z,1026.12
2024-02-17T10:38:30.007Z,1026.10
2024-02-17T10:39:30.031Z,1026.14
2024-02-17T10:40:29.986Z,1026.14
2024-02-17T10:41:29.990Z,1026.15
2024-02-17T10:42:30.018Z,1026.12
2024-02-17T10:43:29.953Z,1026.12
2024-02-17T10:44:29.959Z,1026.14
2024-02-17T10:45:30.028Z,1026.14
2024-02-17T10:46:30.207Z,1026.17
2024-02-17T10:47:29.940Z,1026.15
2024-02-17T10:48:30.096Z,1026.14
2024-02-17T10:49:30.260Z,1026.14
2024-02-17T10:50:29.872Z,1026.15
2024-02-17T10:51:29.890Z,1026.14
2024-02-17T10:52:29.919Z,1026.12
2024-02-17T10:53:29.845Z,1026.14
2024-02-17T10:54:29.880Z,1026.13
2024-02-17T10:55:29.840Z,1026.09
2024-02-17T10:56:29.819Z,1026.04
2024-02-17T10:57:29.834Z,1026.08
2024-02-17T10:58:29.800Z,1026.07
2024-02-17T10:59:30.516Z,1026.04
2024-02-17T11:00:29.914Z,1026.06
2024-02-17T11:01:29.874Z,1026.06
2024-02-17T11:02:29.779Z,1026.02
2024-02-17T11:03:29.928Z,1026.09
2024-02-17T11:04:29.775Z,1026.10
2024-02-17T11:05:29.781Z,1026.09
2024-02-17T11:06:29.866Z,1026.12
2024-02-17T11:07:29.752Z,1026.10
2024-02-17T11:08:29.682Z,1026.14
2024-02-17T11:09:29.734Z,1026.12
2024-02-17T11:10:29.891Z,1026.11
2024-02-17T11:11:29.772Z,1026.09
2024-02-17T11:12:29.788Z,1026.10
2024-02-17T11:13:29.726Z,1026.09
2024-02-17T11:14:29.667Z,1026.08
2024-02-17T11:15:31.988Z,1026.08
2024-02-17T11:16:29.655Z,1026.05
2024-02-17T11:17:29.600Z,1026.09
2024-02-17T11:18:29.930Z,1026.06
2024-02-17T11:19:38.361Z,1026.15
2024-02-17T11:20:30.724Z,1026.16
2024-02-17T11:21:30.876Z,1026.16
2024-02-17T11:22:29.541Z,1026.15
2024-02-17T11:23:29.532Z,1026.18
2024-02-17T11:24:29.522Z,1026.16
2024-02-17T11:25:29.495Z,1026.20
2024-02-17T11:26:37.018Z,1026.14
2024-02-17T11:27:31.974Z,1026.15
2024-02-17T11:28:29.472Z,1026.16
2024-02-17T11:29:29.591Z,1026.18
2024-02-17T11:30:29.537Z,1026.18
2024-02-17T11:31:29.430Z,1026.22
2024-02-17T11:32:29.422Z,1026.21
2024-02-17T11:33:32.198Z,1026.21
2024-02-17T11:34:29.765Z,1026.25
2024-02-17T11:35:29.872Z,1026.25
2024-02-17T11:36:29.607Z,1026.25
2024-02-17T11:37:29.409Z,1026.26
2024-02-17T11:38:29.342Z,1026.30
2024-02-17T11:39:29.358Z,1026.27
2024-02-17T11:40:29.322Z,1026.24
2024-02-17T11:41:29.326Z,1026.24
2024-02-17T11:42:29.394Z,1026.27
2024-02-17T11:43:29.309Z,1026.24
2024-02-17T11:44:29.366Z,1026.22
2024-02-17T11:45:29.347Z,1026.24
2024-02-17T11:46:29.274Z,1026.24
2024-02-17T11:47:29.277Z,1026.21
2024-02-17T11:48:29.495Z,1026.22
2024-02-17T11:49:29.342Z,1026.19
2024-02-17T11:50:29.217Z,1026.22
2024-02-17T11:51:30.256Z,1026.23
2024-02-17T11:52:29.206Z,1026.16
2024-02-17T11:53:29.190Z,1026.20
2024-02-17T11:54:29.232Z,1026.20
2024-02-17T11:55:29.180Z,1026.23
2024-02-17T11:56:29.151Z,1026.20
2024-02-17T11:57:29.145Z,1026.25
2024-02-17T11:58:29.126Z,1026.23
2024-02-17T11:59:29.124Z,1026.24
2024-02-17T12:00:29.138Z,1026.22
2024-02-17T12:01:29.130Z,1026.27
2024-02-17T12:02:29.130Z,1026.24
2024-02-17T12:03:29.217Z,1026.26
2024-02-17T12:04:29.129Z,1026.27
2024-02-17T12:05:29.089Z,1026.28